sensor_id;sensor_type;location;lat;lon;timestamp;P1;durP1;ratioP1;P2;durP2;ratioP2
5117;SDS011;2578;51.622;7.046;2022-10-23T00:01:36;4.30;;;3.90;;
5117;SDS011;2578;51.622;7.046;2022-10-23T00:04:04;4.10;;;3.70;;
5117;SDS011;2578;51.622;7.046;2022-10-23T00:06:33;4.10;;;3.70;;
5117;SDS011;2578;51.622;7.046;2022-10-23T00:08:59;4.93;;;4.43;;
5117;SDS011;2578;51.622;7.046;2022-10-23T00:11:26;4.13;;;3.73;;
5117;SDS011;2578;51.622;7.046;2022-10-23T00:13:55;4.60;;;4.20;;
5117;SDS011;2578;51.622;7.046;2022-10-23T00:16:22;4.43;;;4.03;;
5117;SDS011;2578;51.622;7.046;2022-10-23T00:18:48;3.80;;;3.40;;
5117;SDS011;2578;51.622;7.046;2022-10-23T00:21:14;4.20;;;3.80;;
5117;SDS011;2578;51.622;7.046;2022-10-23T00:23:41;3.90;;;3.50;;
5117;SDS011;2578;51.622;7.046;2022-10-23T00:26:08;3.60;;;3.20;;
5117;SDS011;2578;51.622;7.046;2022-10-23T00:28:43;4.30;;;3.90;;
5117;SDS011;2578;51.622;7.046;2022-10-23T00:31:13;3.90;;;3.50;;
5117;SDS011;2578;51.622;7.046;2022-10-23T00:33:39;4.00;;;3.60;;
5117;SDS011;2578;51.622;7.046;2022-10-23T00:36:06;3.70;;;3.30;;
5117;SDS011;2578;51.622;7.046;2022-10-23T00:38:34;3.87;;;3.47;;
5117;SDS011;2578;51.622;7.046;2022-10-23T00:41:00;4.40;;;4.00;;
5117;SDS011;2578;51.622;7.046;2022-10-23T00:43:26;4.53;;;4.13;;
5117;SDS011;2578;51.622;7.046;2022-10-23T00:45:53;3.80;;;3.40;;
5117;SDS011;2578;51.622;7.046;2022-10-23T00:48:20;5.00;;;4.10;;
5117;SDS011;2578;51.622;7.046;2022-10-23T00:50:46;3.70;;;3.23;;
5117;SDS011;2578;51.622;7.046;2022-10-23T00:53:13;3.70;;;3.10;;
5117;SDS011;2578;51.622;7.046;2022-10-23T00:55:42;3.90;;;3.50;;
5117;SDS011;2578;51.622;7.046;2022-10-23T00:58:12;3.77;;;3.37;;
5117;SDS011;2578;51.622;7.046;2022-10-23T01:03:15;4.00;;;3.60;;
5117;SDS011;2578;51.622;7.046;2022-10-23T01:08:36;4.10;;;3.70;;
5117;SDS011;2578;51.622;7.046;2022-10-23T01:24:56;3.60;;;2.97;;
5117;SDS011;2578;51.622;7.046;2022-10-23T01:27:30;3.73;;;3.30;;
5117;SDS011;2578;51.622;7.046;2022-10-23T01:30:08;3.70;;;3.13;;
5117;SDS011;2578;51.622;7.046;2022-10-23T01:35:20;3.80;;;3.30;;
5117;SDS011;2578;51.622;7.046;2022-10-23T01:37:50;4.00;;;3.60;;
5117;SDS011;2578;51.622;7.046;2022-10-23T01:43:37;3.97;;;3.57;;
5117;SDS011;2578;51.622;7.046;2022-10-23T01:46:08;4.30;;;3.90;;
5117;SDS011;2578;51.622;7.046;2022-10-23T01:48:38;5.57;;;5.00;;
5117;SDS011;2578;51.622;7.046;2022-10-23T01:51:07;4.00;;;3.53;;
5117;SDS011;2578;51.622;7.046;2022-10-23T01:53:38;4.10;;;3.70;;
5117;SDS011;2578;51.622;7.046;2022-10-23T01:56:08;3.80;;;3.40;;
5117;SDS011;2578;51.622;7.046;2022-10-23T01:58:37;4.20;;;3.80;;
5117;SDS011;2578;51.622;7.046;2022-10-23T02:01:06;4.00;;;3.60;;
5117;SDS011;2578;51.622;7.046;2022-10-23T02:03:34;4.10;;;3.70;;
5117;SDS011;2578;51.622;7.046;2022-10-23T02:06:00;4.20;;;3.80;;
5117;SDS011;2578;51.622;7.046;2022-10-23T02:08:26;4.40;;;4.00;;
5117;SDS011;2578;51.622;7.046;2022-10-23T02:11:08;4.73;;;4.33;;
5117;SDS011;2578;51.622;7.046;2022-10-23T02:18:54;4.10;;;3.70;;
5117;SDS011;2578;51.622;7.046;2022-10-23T02:21:38;4.37;;;3.97;;
5117;SDS011;2578;51.622;7.046;2022-10-23T02:27:15;4.47;;;4.07;;
5117;SDS011;2578;51.622;7.046;2022-10-23T02:32:13;5.17;;;4.77;;
5117;SDS011;2578;51.622;7.046;2022-10-23T02:34:41;5.20;;;4.80;;
5117;SDS011;2578;51.622;7.046;2022-10-23T02:37:06;5.50;;;5.00;;
5117;SDS011;2578;51.622;7.046;2022-10-23T02:39:32;5.10;;;4.70;;
5117;SDS011;2578;51.622;7.046;2022-10-23T02:42:09;4.03;;;3.63;;
5117;SDS011;2578;51.622;7.046;2022-10-23T02:45:26;4.53;;;4.13;;
5117;SDS011;2578;51.622;7.046;2022-10-23T02:48:05;4.00;;;3.60;;
5117;SDS011;2578;51.622;7.046;2022-10-23T02:56:01;4.10;;;3.70;;
5117;SDS011;2578;51.622;7.046;2022-10-23T03:01:25;4.73;;;4.33;;
5117;SDS011;2578;51.622;7.046;2022-10-23T03:03:58;5.50;;;5.10;;
5117;SDS011;2578;51.622;7.046;2022-10-23T03:06:27;4.70;;;4.30;;
5117;SDS011;2578;51.622;7.046;2022-10-23T03:11:26;4.70;;;4.30;;
5117;SDS011;2578;51.622;7.046;2022-10-23T03:13:52;4.93;;;4.47;;
5117;SDS011;2578;51.622;7.046;2022-10-23T03:16:18;4.10;;;3.70;;
5117;SDS011;2578;51.622;7.046;2022-10-23T03:18:44;4.40;;;4.00;;
5117;SDS011;2578;51.622;7.046;2022-10-23T03:21:09;5.57;;;5.07;;
5117;SDS011;2578;51.622;7.046;2022-10-23T03:23:35;5.37;;;4.87;;
5117;SDS011;2578;51.622;7.046;2022-10-23T03:26:00;5.30;;;4.87;;
5117;SDS011;2578;51.622;7.046;2022-10-23T03:28:26;5.87;;;5.37;;
5117;SDS011;2578;51.622;7.046;2022-10-23T03:30:52;5.47;;;4.97;;
5117;SDS011;2578;51.622;7.046;2022-10-23T03:33:17;4.70;;;4.30;;
5117;SDS011;2578;51.622;7.046;2022-10-23T03:35:43;4.80;;;4.40;;
5117;SDS011;2578;51.622;7.046;2022-10-23T03:38:08;4.47;;;4.07;;
5117;SDS011;2578;51.622;7.046;2022-10-23T03:40:34;4.50;;;4.10;;
5117;SDS011;2578;51.622;7.046;2022-10-23T03:43:00;5.50;;;5.10;;
5117;SDS011;2578;51.622;7.046;2022-10-23T03:45:26;6.27;;;5.77;;
5117;SDS011;2578;51.622;7.046;2022-10-23T03:47:51;5.80;;;5.30;;
5117;SDS011;2578;51.622;7.046;2022-10-23T03:50:18;5.87;;;5.40;;
5117;SDS011;2578;51.622;7.046;2022-10-23T03:52:44;5.67;;;5.20;;
5117;SDS011;2578;51.622;7.046;2022-10-23T03:55:09;5.30;;;4.90;;
5117;SDS011;2578;51.622;7.046;2022-10-23T03:57:36;4.80;;;4.40;;
5117;SDS011;2578;51.622;7.046;2022-10-23T04:00:02;4.80;;;4.40;;
5117;SDS011;2578;51.622;7.046;2022-10-23T04:02:29;4.90;;;4.50;;
5117;SDS011;2578;51.622;7.046;2022-10-23T04:04:55;5.30;;;4.90;;
5117;SDS011;2578;51.622;7.046;2022-10-23T04:07:21;6.40;;;5.90;;
5117;SDS011;2578;51.622;7.046;2022-10-23T04:09:47;6.93;;;6.43;;
5117;SDS011;2578;51.622;7.046;2022-10-23T04:12:12;6.50;;;6.00;;
5117;SDS011;2578;51.622;7.046;2022-10-23T04:14:38;6.50;;;6.00;;
5117;SDS011;2578;51.622;7.046;2022-10-23T04:17:03;6.87;;;6.37;;
5117;SDS011;2578;51.622;7.046;2022-10-23T04:19:29;6.70;;;6.20;;
5117;SDS011;2578;51.622;7.046;2022-10-23T04:21:55;6.60;;;6.10;;
5117;SDS011;2578;51.622;7.046;2022-10-23T04:24:21;6.70;;;6.20;;
5117;SDS011;2578;51.622;7.046;2022-10-23T04:26:47;7.20;;;6.70;;
5117;SDS011;2578;51.622;7.046;2022-10-23T04:29:13;6.00;;;5.50;;
5117;SDS011;2578;51.622;7.046;2022-10-23T04:31:39;11.40;;;7.17;;
5117;SDS011;2578;51.622;7.046;2022-10-23T04:34:04;5.50;;;5.10;;
5117;SDS011;2578;51.622;7.046;2022-10-23T04:36:30;5.60;;;5.20;;
5117;SDS011;2578;51.622;7.046;2022-10-23T04:38:56;5.63;;;5.23;;
5117;SDS011;2578;51.622;7.046;2022-10-23T04:41:21;6.80;;;6.30;;
5117;SDS011;2578;51.622;7.046;2022-10-23T04:43:47;6.70;;;6.20;;
5117;SDS011;2578;51.622;7.046;2022-10-23T04:46:12;6.27;;;5.77;;
5117;SDS011;2578;51.622;7.046;2022-10-23T04:48:38;5.40;;;5.00;;
5117;SDS011;2578;51.622;7.046;2022-10-23T04:51:04;5.80;;;5.40;;
5117;SDS011;2578;51.622;7.046;2022-10-23T04:53:30;5.30;;;4.90;;
5117;SDS011;2578;51.622;7.046;2022-10-23T04:55:57;7.07;;;6.47;;
5117;SDS011;2578;51.622;7.046;2022-10-23T04:58:24;5.10;;;4.70;;
5117;SDS011;2578;51.622;7.046;2022-10-23T05:00:50;5.83;;;5.40;;
5117;SDS011;2578;51.622;7.046;2022-10-23T05:03:17;6.17;;;5.67;;
5117;SDS011;2578;51.622;7.046;2022-10-23T05:05:44;5.83;;;5.43;;
5117;SDS011;2578;51.622;7.046;2022-10-23T05:08:10;5.20;;;4.80;;
5117;SDS011;2578;51.622;7.046;2022-10-23T05:10:36;5.30;;;4.90;;
5117;SDS011;2578;51.622;7.046;2022-10-23T05:13:02;6.17;;;5.67;;
5117;SDS011;2578;51.622;7.046;2022-10-23T05:15:28;5.50;;;5.10;;
5117;SDS011;2578;51.622;7.046;2022-10-23T05:17:55;6.33;;;5.83;;
5117;SDS011;2578;51.622;7.046;2022-10-23T05:20:27;6.70;;;6.20;;
5117;SDS011;2578;51.622;7.046;2022-10-23T05:22:55;6.80;;;6.30;;
5117;SDS011;2578;51.622;7.046;2022-10-23T05:25:22;5.97;;;5.47;;
5117;SDS011;2578;51.622;7.046;2022-10-23T05:27:47;6.17;;;5.67;;
5117;SDS011;2578;51.622;7.046;2022-10-23T05:30:13;6.53;;;6.03;;
5117;SDS011;2578;51.622;7.046;2022-10-23T05:32:39;6.20;;;5.70;;
5117;SDS011;2578;51.622;7.046;2022-10-23T05:35:06;7.00;;;6.50;;
5117;SDS011;2578;51.622;7.046;2022-10-23T05:37:33;7.10;;;6.60;;
5117;SDS011;2578;51.622;7.046;2022-10-23T05:40:02;7.60;;;7.10;;
5117;SDS011;2578;51.622;7.046;2022-10-23T05:42:28;7.60;;;7.10;;
5117;SDS011;2578;51.622;7.046;2022-10-23T05:44:54;7.53;;;7.03;;
5117;SDS011;2578;51.622;7.046;2022-10-23T05:47:20;7.50;;;7.00;;
5117;SDS011;2578;51.622;7.046;2022-10-23T05:49:46;7.10;;;6.60;;
5117;SDS011;2578;51.622;7.046;2022-10-23T05:52:11;7.10;;;6.60;;
5117;SDS011;2578;51.622;7.046;2022-10-23T05:54:37;8.37;;;7.70;;
5117;SDS011;2578;51.622;7.046;2022-10-23T05:57:03;5.40;;;5.00;;
5117;SDS011;2578;51.622;7.046;2022-10-23T05:59:28;6.10;;;5.20;;
5117;SDS011;2578;51.622;7.046;2022-10-23T06:01:55;5.60;;;5.10;;
5117;SDS011;2578;51.622;7.046;2022-10-23T06:04:20;5.67;;;5.27;;
5117;SDS011;2578;51.622;7.046;2022-10-23T06:06:46;5.50;;;5.10;;
5117;SDS011;2578;51.622;7.046;2022-10-23T06:09:13;6.60;;;6.10;;
5117;SDS011;2578;51.622;7.046;2022-10-23T06:11:39;7.63;;;7.13;;
5117;SDS011;2578;51.622;7.046;2022-10-23T06:14:05;7.67;;;7.17;;
5117;SDS011;2578;51.622;7.046;2022-10-23T06:16:31;7.20;;;6.70;;
5117;SDS011;2578;51.622;7.046;2022-10-23T06:18:57;6.90;;;6.40;;
5117;SDS011;2578;51.622;7.046;2022-10-23T06:21:24;7.83;;;7.13;;
5117;SDS011;2578;51.622;7.046;2022-10-23T06:23:50;6.60;;;6.00;;
5117;SDS011;2578;51.622;7.046;2022-10-23T06:26:17;7.00;;;6.40;;
5117;SDS011;2578;51.622;7.046;2022-10-23T06:28:43;6.10;;;5.60;;
5117;SDS011;2578;51.622;7.046;2022-10-23T06:31:10;6.27;;;5.77;;
5117;SDS011;2578;51.622;7.046;2022-10-23T06:33:37;7.10;;;6.40;;
5117;SDS011;2578;51.622;7.046;2022-10-23T06:36:03;6.80;;;6.30;;
5117;SDS011;2578;51.622;7.046;2022-10-23T06:38:32;7.00;;;6.50;;
5117;SDS011;2578;51.622;7.046;2022-10-23T06:41:01;6.43;;;5.93;;
5117;SDS011;2578;51.622;7.046;2022-10-23T06:43:27;6.60;;;6.10;;
5117;SDS011;2578;51.622;7.046;2022-10-23T06:45:52;7.23;;;6.63;;
5117;SDS011;2578;51.622;7.046;2022-10-23T06:48:18;5.50;;;5.10;;
5117;SDS011;2578;51.622;7.046;2022-10-23T06:50:44;6.43;;;5.93;;
5117;SDS011;2578;51.622;7.046;2022-10-23T06:53:09;6.60;;;6.00;;
5117;SDS011;2578;51.622;7.046;2022-10-23T06:55:36;7.60;;;7.10;;
5117;SDS011;2578;51.622;7.046;2022-10-23T06:58:04;8.07;;;7.50;;
5117;SDS011;2578;51.622;7.046;2022-10-23T07:00:34;6.80;;;6.30;;
5117;SDS011;2578;51.622;7.046;2022-10-23T07:03:02;7.57;;;7.07;;
5117;SDS011;2578;51.622;7.046;2022-10-23T07:05:28;6.73;;;6.23;;
5117;SDS011;2578;51.622;7.046;2022-10-23T07:07:54;6.13;;;5.63;;
5117;SDS011;2578;51.622;7.046;2022-10-23T07:10:20;5.93;;;5.43;;
5117;SDS011;2578;51.622;7.046;2022-10-23T07:12:45;5.70;;;5.20;;
5117;SDS011;2578;51.622;7.046;2022-10-23T07:15:13;5.10;;;4.70;;
5117;SDS011;2578;51.622;7.046;2022-10-23T07:17:39;5.47;;;5.07;;
5117;SDS011;2578;51.622;7.046;2022-10-23T07:20:05;6.20;;;5.60;;
5117;SDS011;2578;51.622;7.046;2022-10-23T07:22:31;5.33;;;4.93;;
5117;SDS011;2578;51.622;7.046;2022-10-23T07:24:56;6.47;;;5.93;;
5117;SDS011;2578;51.622;7.046;2022-10-23T07:27:22;5.30;;;4.90;;
5117;SDS011;2578;51.622;7.046;2022-10-23T07:29:49;6.60;;;6.00;;
5117;SDS011;2578;51.622;7.046;2022-10-23T07:32:14;5.90;;;5.40;;
5117;SDS011;2578;51.622;7.046;2022-10-23T07:34:40;5.80;;;5.30;;
5117;SDS011;2578;51.622;7.046;2022-10-23T07:37:06;6.37;;;5.87;;
5117;SDS011;2578;51.622;7.046;2022-10-23T07:39:31;5.60;;;5.20;;
5117;SDS011;2578;51.622;7.046;2022-10-23T07:41:57;5.07;;;4.67;;
5117;SDS011;2578;51.622;7.046;2022-10-23T07:44:23;5.50;;;5.10;;
5117;SDS011;2578;51.622;7.046;2022-10-23T07:46:49;5.30;;;4.80;;
5117;SDS011;2578;51.622;7.046;2022-10-23T07:49:14;5.30;;;4.90;;
5117;SDS011;2578;51.622;7.046;2022-10-23T07:51:40;6.17;;;5.67;;
5117;SDS011;2578;51.622;7.046;2022-10-23T07:54:06;5.97;;;5.47;;
5117;SDS011;2578;51.622;7.046;2022-10-23T07:56:34;6.47;;;5.97;;
5117;SDS011;2578;51.622;7.046;2022-10-23T07:59:00;5.33;;;4.93;;
5117;SDS011;2578;51.622;7.046;2022-10-23T08:01:30;5.90;;;5.40;;
5117;SDS011;2578;51.622;7.046;2022-10-23T08:04:02;5.10;;;4.70;;
5117;SDS011;2578;51.622;7.046;2022-10-23T08:06:28;4.90;;;4.50;;
5117;SDS011;2578;51.622;7.046;2022-10-23T08:08:54;5.97;;;5.43;;
5117;SDS011;2578;51.622;7.046;2022-10-23T08:11:21;7.80;;;7.10;;
5117;SDS011;2578;51.622;7.046;2022-10-23T08:13:53;6.07;;;5.57;;
5117;SDS011;2578;51.622;7.046;2022-10-23T08:16:20;6.63;;;6.13;;
5117;SDS011;2578;51.622;7.046;2022-10-23T08:18:47;6.90;;;6.40;;
5117;SDS011;2578;51.622;7.046;2022-10-23T08:21:13;6.97;;;6.47;;
5117;SDS011;2578;51.622;7.046;2022-10-23T08:23:40;7.43;;;6.83;;
5117;SDS011;2578;51.622;7.046;2022-10-23T08:26:06;7.13;;;6.63;;
5117;SDS011;2578;51.622;7.046;2022-10-23T08:28:32;5.70;;;5.20;;
5117;SDS011;2578;51.622;7.046;2022-10-23T08:31:05;4.80;;;4.40;;
5117;SDS011;2578;51.622;7.046;2022-10-23T08:33:42;41.00;;;4.50;;
5117;SDS011;2578;51.622;7.046;2022-10-23T08:36:15;3.83;;;3.43;;
5117;SDS011;2578;51.622;7.046;2022-10-23T08:38:46;3.60;;;3.30;;
5117;SDS011;2578;51.622;7.046;2022-10-23T08:41:18;3.80;;;3.33;;
5117;SDS011;2578;51.622;7.046;2022-10-23T08:44:13;3.57;;;2.90;;
5117;SDS011;2578;51.622;7.046;2022-10-23T08:46:39;3.50;;;2.77;;
5117;SDS011;2578;51.622;7.046;2022-10-23T08:51:34;5.40;;;3.77;;
5117;SDS011;2578;51.622;7.046;2022-10-23T08:57:10;4.07;;;3.17;;
5117;SDS011;2578;51.622;7.046;2022-10-23T08:59:45;3.50;;;3.03;;
5117;SDS011;2578;51.622;7.046;2022-10-23T09:04:51;5.23;;;3.80;;
5117;SDS011;2578;51.622;7.046;2022-10-23T09:10:24;3.40;;;3.00;;
5117;SDS011;2578;51.622;7.046;2022-10-23T09:13:03;3.43;;;3.00;;
5117;SDS011;2578;51.622;7.046;2022-10-23T09:15:46;3.67;;;3.20;;
5117;SDS011;2578;51.622;7.046;2022-10-23T09:18:34;4.47;;;4.07;;
5117;SDS011;2578;51.622;7.046;2022-10-23T09:21:00;3.80;;;3.17;;
5117;SDS011;2578;51.622;7.046;2022-10-23T09:23:26;3.90;;;3.17;;
5117;SDS011;2578;51.622;7.046;2022-10-23T09:25:52;3.60;;;3.20;;
5117;SDS011;2578;51.622;7.046;2022-10-23T09:28:22;4.87;;;4.37;;
5117;SDS011;2578;51.622;7.046;2022-10-23T09:30:51;4.43;;;3.40;;
5117;SDS011;2578;51.622;7.046;2022-10-23T09:35:58;5.80;;;4.93;;
5117;SDS011;2578;51.622;7.046;2022-10-23T09:38:34;3.53;;;3.10;;
5117;SDS011;2578;51.622;7.046;2022-10-23T09:43:59;3.60;;;3.03;;
5117;SDS011;2578;51.622;7.046;2022-10-23T09:46:35;3.97;;;3.50;;
5117;SDS011;2578;51.622;7.046;2022-10-23T09:49:19;3.37;;;2.80;;
5117;SDS011;2578;51.622;7.046;2022-10-23T09:54:31;3.37;;;2.90;;
5117;SDS011;2578;51.622;7.046;2022-10-23T09:57:50;3.50;;;3.20;;
5117;SDS011;2578;51.622;7.046;2022-10-23T10:00:03;4.13;;;3.73;;
5117;SDS011;2578;51.622;7.046;2022-10-23T10:02:41;5.00;;;3.43;;
5117;SDS011;2578;51.622;7.046;2022-10-23T10:05:25;6.53;;;4.00;;
5117;SDS011;2578;51.622;7.046;2022-10-23T10:07:58;4.10;;;3.63;;
5117;SDS011;2578;51.622;7.046;2022-10-23T10:10:36;4.20;;;3.80;;
5117;SDS011;2578;51.622;7.046;2022-10-23T10:15:50;4.30;;;3.90;;
5117;SDS011;2578;51.622;7.046;2022-10-23T10:40:31;5.00;;;4.60;;
5117;SDS011;2578;51.622;7.046;2022-10-23T10:51:45;6.17;;;5.77;;
5117;SDS011;2578;51.622;7.046;2022-10-23T10:54:41;5.27;;;4.87;;
5117;SDS011;2578;51.622;7.046;2022-10-23T10:59:55;4.90;;;4.50;;
5117;SDS011;2578;51.622;7.046;2022-10-23T11:05:09;6.97;;;5.60;;
5117;SDS011;2578;51.622;7.046;2022-10-23T11:07:53;5.07;;;4.67;;
5117;SDS011;2578;51.622;7.046;2022-10-23T11:10:31;5.10;;;4.60;;
5117;SDS011;2578;51.622;7.046;2022-10-23T11:12:57;4.97;;;4.57;;
5117;SDS011;2578;51.622;7.046;2022-10-23T11:15:25;4.90;;;4.50;;
5117;SDS011;2578;51.622;7.046;2022-10-23T11:17:58;5.00;;;4.60;;
5117;SDS011;2578;51.622;7.046;2022-10-23T11:36:54;6.13;;;5.70;;
5117;SDS011;2578;51.622;7.046;2022-10-23T11:39:23;6.50;;;6.10;;
5117;SDS011;2578;51.622;7.046;2022-10-23T11:41:57;7.00;;;6.50;;
5117;SDS011;2578;51.622;7.046;2022-10-23T11:44:47;7.00;;;6.50;;
5117;SDS011;2578;51.622;7.046;2022-10-23T11:52:31;7.30;;;6.80;;
5117;SDS011;2578;51.622;7.046;2022-10-23T11:55:18;8.30;;;7.70;;
5117;SDS011;2578;51.622;7.046;2022-10-23T12:00:27;8.33;;;7.83;;
5117;SDS011;2578;51.622;7.046;2022-10-23T12:02:54;7.57;;;7.07;;
5117;SDS011;2578;51.622;7.046;2022-10-23T12:07:55;7.60;;;7.10;;
5117;SDS011;2578;51.622;7.046;2022-10-23T12:12:59;7.80;;;7.30;;
5117;SDS011;2578;51.622;7.046;2022-10-23T12:15:28;8.03;;;7.53;;
5117;SDS011;2578;51.622;7.046;2022-10-23T12:18:05;7.20;;;6.70;;
5117;SDS011;2578;51.622;7.046;2022-10-23T12:20:38;7.13;;;6.63;;
5117;SDS011;2578;51.622;7.046;2022-10-23T12:23:19;6.83;;;6.33;;
5117;SDS011;2578;51.622;7.046;2022-10-23T12:26:11;7.70;;;7.00;;
5117;SDS011;2578;51.622;7.046;2022-10-23T12:32:01;7.50;;;7.00;;
5117;SDS011;2578;51.622;7.046;2022-10-23T12:37:41;11.50;;;10.80;;
5117;SDS011;2578;51.622;7.046;2022-10-23T12:40:28;12.63;;;11.83;;
5117;SDS011;2578;51.622;7.046;2022-10-23T12:42:55;13.90;;;13.00;;
5117;SDS011;2578;51.622;7.046;2022-10-23T12:45:29;14.30;;;13.40;;
5117;SDS011;2578;51.622;7.046;2022-10-23T12:48:01;14.83;;;13.83;;
5117;SDS011;2578;51.622;7.046;2022-10-23T12:50:27;14.53;;;13.63;;
5117;SDS011;2578;51.622;7.046;2022-10-23T12:52:59;14.07;;;13.10;;
5117;SDS011;2578;51.622;7.046;2022-10-23T12:55:28;12.80;;;12.00;;
5117;SDS011;2578;51.622;7.046;2022-10-23T12:57:56;15.27;;;14.07;;
5117;SDS011;2578;51.622;7.046;2022-10-23T13:00:23;14.90;;;14.00;;
5117;SDS011;2578;51.622;7.046;2022-10-23T13:02:59;15.60;;;14.50;;
5117;SDS011;2578;51.622;7.046;2022-10-23T13:05:26;14.57;;;13.67;;
5117;SDS011;2578;51.622;7.046;2022-10-23T13:07:53;15.50;;;14.50;;
5117;SDS011;2578;51.622;7.046;2022-10-23T13:10:19;15.30;;;14.30;;
5117;SDS011;2578;51.622;7.046;2022-10-23T13:13:01;14.83;;;13.80;;
5117;SDS011;2578;51.622;7.046;2022-10-23T13:15:41;14.93;;;14.03;;
5117;SDS011;2578;51.622;7.046;2022-10-23T13:18:09;13.93;;;13.03;;
5117;SDS011;2578;51.622;7.046;2022-10-23T13:20:42;16.00;;;14.80;;
5117;SDS011;2578;51.622;7.046;2022-10-23T13:26:31;13.43;;;12.53;;
5117;SDS011;2578;51.622;7.046;2022-10-23T13:28:56;14.33;;;13.43;;
5117;SDS011;2578;51.622;7.046;2022-10-23T13:31:24;12.40;;;11.60;;
5117;SDS011;2578;51.622;7.046;2022-10-23T13:36:33;13.07;;;12.27;;
5117;SDS011;2578;51.622;7.046;2022-10-23T13:39:11;12.83;;;11.97;;
5117;SDS011;2578;51.622;7.046;2022-10-23T13:41:42;13.20;;;12.27;;
5117;SDS011;2578;51.622;7.046;2022-10-23T13:44:10;12.87;;;12.07;;
5117;SDS011;2578;51.622;7.046;2022-10-23T13:46:37;12.30;;;11.60;;
5117;SDS011;2578;51.622;7.046;2022-10-23T13:49:03;12.60;;;11.80;;
5117;SDS011;2578;51.622;7.046;2022-10-23T13:51:29;12.10;;;11.40;;
5117;SDS011;2578;51.622;7.046;2022-10-23T13:53:58;14.03;;;13.13;;
5117;SDS011;2578;51.622;7.046;2022-10-23T13:56:25;12.87;;;12.03;;
5117;SDS011;2578;51.622;7.046;2022-10-23T13:58:51;12.20;;;11.50;;
5117;SDS011;2578;51.622;7.046;2022-10-23T14:01:28;12.40;;;11.70;;
5117;SDS011;2578;51.622;7.046;2022-10-23T14:03:57;11.90;;;11.20;;
5117;SDS011;2578;51.622;7.046;2022-10-23T14:06:23;12.10;;;11.40;;
5117;SDS011;2578;51.622;7.046;2022-10-23T14:08:49;12.20;;;11.50;;
5117;SDS011;2578;51.622;7.046;2022-10-23T14:11:15;12.40;;;11.60;;
5117;SDS011;2578;51.622;7.046;2022-10-23T14:13:43;12.20;;;11.50;;
5117;SDS011;2578;51.622;7.046;2022-10-23T14:16:11;12.60;;;11.80;;
5117;SDS011;2578;51.622;7.046;2022-10-23T14:18:38;11.90;;;11.20;;
5117;SDS011;2578;51.622;7.046;2022-10-23T14:21:05;12.40;;;11.57;;
5117;SDS011;2578;51.622;7.046;2022-10-23T14:23:32;11.77;;;11.07;;
5117;SDS011;2578;51.622;7.046;2022-10-23T14:26:06;10.93;;;10.30;;
5117;SDS011;2578;51.622;7.046;2022-10-23T14:28:34;10.70;;;10.10;;
5117;SDS011;2578;51.622;7.046;2022-10-23T14:31:06;12.27;;;11.13;;
5117;SDS011;2578;51.622;7.046;2022-10-23T14:33:36;11.63;;;10.83;;
5117;SDS011;2578;51.622;7.046;2022-10-23T14:36:03;11.10;;;10.40;;
5117;SDS011;2578;51.622;7.046;2022-10-23T14:38:29;9.70;;;9.10;;
5117;SDS011;2578;51.622;7.046;2022-10-23T14:40:55;10.27;;;9.67;;
5117;SDS011;2578;51.622;7.046;2022-10-23T14:43:21;15.80;;;14.60;;
5117;SDS011;2578;51.622;7.046;2022-10-23T14:45:47;9.87;;;9.27;;
5117;SDS011;2578;51.622;7.046;2022-10-23T14:48:13;10.60;;;10.00;;
5117;SDS011;2578;51.622;7.046;2022-10-23T14:50:43;9.90;;;9.30;;
5117;SDS011;2578;51.622;7.046;2022-10-23T14:53:11;11.23;;;9.00;;
5117;SDS011;2578;51.622;7.046;2022-10-23T14:55:37;10.07;;;9.37;;
5117;SDS011;2578;51.622;7.046;2022-10-23T14:58:03;9.80;;;9.20;;
5117;SDS011;2578;51.622;7.046;2022-10-23T15:00:29;9.20;;;8.63;;
5117;SDS011;2578;51.622;7.046;2022-10-23T15:02:55;8.33;;;7.83;;
5117;SDS011;2578;51.622;7.046;2022-10-23T15:05:21;9.60;;;9.00;;
5117;SDS011;2578;51.622;7.046;2022-10-23T15:07:47;9.10;;;8.50;;
5117;SDS011;2578;51.622;7.046;2022-10-23T15:10:13;9.60;;;9.00;;
5117;SDS011;2578;51.622;7.046;2022-10-23T15:12:39;12.07;;;11.27;;
5117;SDS011;2578;51.622;7.046;2022-10-23T15:15:05;9.27;;;8.67;;
5117;SDS011;2578;51.622;7.046;2022-10-23T15:17:32;10.00;;;9.40;;
5117;SDS011;2578;51.622;7.046;2022-10-23T15:19:59;10.27;;;9.57;;
5117;SDS011;2578;51.622;7.046;2022-10-23T15:22:25;9.10;;;8.50;;
5117;SDS011;2578;51.622;7.046;2022-10-23T15:24:52;9.57;;;8.97;;
5117;SDS011;2578;51.622;7.046;2022-10-23T15:27:17;9.60;;;9.00;;
5117;SDS011;2578;51.622;7.046;2022-10-23T15:29:43;9.10;;;8.50;;
5117;SDS011;2578;51.622;7.046;2022-10-23T15:32:09;8.77;;;8.23;;
5117;SDS011;2578;51.622;7.046;2022-10-23T15:34:36;8.40;;;7.90;;
5117;SDS011;2578;51.622;7.046;2022-10-23T15:37:03;8.00;;;7.40;;
5117;SDS011;2578;51.622;7.046;2022-10-23T15:39:30;9.60;;;8.60;;
5117;SDS011;2578;51.622;7.046;2022-10-23T15:42:00;7.10;;;6.60;;
5117;SDS011;2578;51.622;7.046;2022-10-23T15:44:28;6.30;;;5.90;;
5117;SDS011;2578;51.622;7.046;2022-10-23T15:46:55;5.63;;;5.23;;
5117;SDS011;2578;51.622;7.046;2022-10-23T15:49:21;6.00;;;5.50;;
5117;SDS011;2578;51.622;7.046;2022-10-23T15:51:46;5.20;;;4.80;;
5117;SDS011;2578;51.622;7.046;2022-10-23T15:54:13;4.50;;;4.10;;
5117;SDS011;2578;51.622;7.046;2022-10-23T15:56:42;4.53;;;4.13;;
5117;SDS011;2578;51.622;7.046;2022-10-23T15:59:09;4.13;;;3.80;;
5117;SDS011;2578;51.622;7.046;2022-10-23T16:01:35;4.93;;;4.03;;
5117;SDS011;2578;51.622;7.046;2022-10-23T16:04:00;3.53;;;3.23;;
5117;SDS011;2578;51.622;7.046;2022-10-23T16:06:26;3.40;;;3.10;;
5117;SDS011;2578;51.622;7.046;2022-10-23T16:08:52;3.83;;;3.43;;
5117;SDS011;2578;51.622;7.046;2022-10-23T16:11:24;3.40;;;3.00;;
5117;SDS011;2578;51.622;7.046;2022-10-23T16:13:55;4.40;;;4.00;;
5117;SDS011;2578;51.622;7.046;2022-10-23T16:16:22;6.10;;;5.60;;
5117;SDS011;2578;51.622;7.046;2022-10-23T16:18:49;6.57;;;6.07;;
5117;SDS011;2578;51.622;7.046;2022-10-23T16:21:16;7.00;;;6.50;;
5117;SDS011;2578;51.622;7.046;2022-10-23T16:23:44;8.13;;;7.53;;
5117;SDS011;2578;51.622;7.046;2022-10-23T16:26:10;6.93;;;6.43;;
5117;SDS011;2578;51.622;7.046;2022-10-23T16:28:35;9.50;;;6.17;;
5117;SDS011;2578;51.622;7.046;2022-10-23T16:31:02;6.20;;;5.70;;
5117;SDS011;2578;51.622;7.046;2022-10-23T16:33:33;5.80;;;5.40;;
5117;SDS011;2578;51.622;7.046;2022-10-23T16:36:02;5.90;;;5.50;;
5117;SDS011;2578;51.622;7.046;2022-10-23T16:38:32;6.50;;;6.00;;
5117;SDS011;2578;51.622;7.046;2022-10-23T16:40:58;8.53;;;7.83;;
5117;SDS011;2578;51.622;7.046;2022-10-23T16:43:24;11.33;;;6.90;;
5117;SDS011;2578;51.622;7.046;2022-10-23T16:46:07;8.90;;;8.20;;
5117;SDS011;2578;51.622;7.046;2022-10-23T16:48:41;7.90;;;7.30;;
5117;SDS011;2578;51.622;7.046;2022-10-23T16:51:12;6.97;;;6.47;;
5117;SDS011;2578;51.622;7.046;2022-10-23T16:53:39;68.13;;;8.33;;
5117;SDS011;2578;51.622;7.046;2022-10-23T16:56:06;7.77;;;7.13;;
5117;SDS011;2578;51.622;7.046;2022-10-23T16:58:33;7.60;;;7.00;;
5117;SDS011;2578;51.622;7.046;2022-10-23T17:01:04;7.87;;;7.37;;
5117;SDS011;2578;51.622;7.046;2022-10-23T17:03:35;7.30;;;6.80;;
5117;SDS011;2578;51.622;7.046;2022-10-23T17:06:03;7.60;;;7.10;;
5117;SDS011;2578;51.622;7.046;2022-10-23T17:08:31;6.70;;;6.20;;
5117;SDS011;2578;51.622;7.046;2022-10-23T17:11:04;6.90;;;6.40;;
5117;SDS011;2578;51.622;7.046;2022-10-23T17:13:35;6.80;;;6.30;;
5117;SDS011;2578;51.622;7.046;2022-10-23T17:16:03;8.50;;;7.90;;
5117;SDS011;2578;51.622;7.046;2022-10-23T17:18:31;8.20;;;7.50;;
5117;SDS011;2578;51.622;7.046;2022-10-23T17:20:57;8.80;;;8.17;;
5117;SDS011;2578;51.622;7.046;2022-10-23T17:23:24;11.50;;;10.70;;
5117;SDS011;2578;51.622;7.046;2022-10-23T17:25:50;14.17;;;13.27;;
5117;SDS011;2578;51.622;7.046;2022-10-23T17:28:16;17.63;;;16.23;;
5117;SDS011;2578;51.622;7.046;2022-10-23T17:30:42;15.77;;;14.47;;
5117;SDS011;2578;51.622;7.046;2022-10-23T17:33:08;16.00;;;14.63;;
5117;SDS011;2578;51.622;7.046;2022-10-23T17:35:33;13.10;;;12.30;;
5117;SDS011;2578;51.622;7.046;2022-10-23T17:37:59;12.17;;;11.30;;
5117;SDS011;2578;51.622;7.046;2022-10-23T17:40:25;9.80;;;9.20;;
5117;SDS011;2578;51.622;7.046;2022-10-23T17:42:55;10.80;;;10.10;;
5117;SDS011;2578;51.622;7.046;2022-10-23T17:45:21;12.27;;;11.53;;
5117;SDS011;2578;51.622;7.046;2022-10-23T17:47:46;11.20;;;10.50;;